createdAt,value
2023-02-15T00:00:42.196Z,102124.94
2023-02-15T00:03:32.250Z,102126.38
2023-02-15T00:06:03.470Z,102119.36
2023-02-15T00:08:35.331Z,102134.23
2023-02-15T00:11:10.037Z,102137.45
2023-02-15T00:13:45.972Z,102141.29
2023-02-15T00:16:16.717Z,102138.05
2023-02-15T00:18:48.300Z,102144.21
2023-02-15T00:21:19.301Z,102141.61
2023-02-15T00:23:50.330Z,102136.64
2023-02-15T00:26:21.182Z,102133.98
2023-02-15T00:28:51.874Z,102127.41
2023-02-15T00:31:23.032Z,102131.87
2023-02-15T00:33:53.985Z,102129.12
2023-02-15T00:36:25.274Z,102126.98
2023-02-15T00:38:56.068Z,102129.02
2023-02-15T00:41:26.836Z,102122.10
2023-02-15T00:43:58.261Z,102121.29
2023-02-15T00:46:29.242Z,102119.73
2023-02-15T00:49:00.447Z,102121.12
2023-02-15T00:51:31.354Z,102122.27
2023-02-15T00:54:02.296Z,102121.07
2023-02-15T00:56:33.458Z,102118.96
2023-02-15T00:59:05.398Z,102121.58
2023-02-15T01:01:36.553Z,102120.79
2023-02-15T01:04:07.582Z,102125.48
2023-02-15T01:06:38.725Z,102126.78
2023-02-15T01:09:10.344Z,102126.47
2023-02-15T01:11:41.637Z,102126.92
2023-02-15T01:14:14.235Z,102126.09
2023-02-15T01:16:44.925Z,102121.12
2023-02-15T01:19:16.316Z,102123.68
2023-02-15T01:21:47.129Z,102128.92
2023-02-15T01:24:18.318Z,102132.16
2023-02-15T01:26:49.126Z,102136.16
2023-02-15T01:29:20.308Z,102134.59
2023-02-15T01:31:51.292Z,102136.10
2023-02-15T01:34:22.014Z,102137.37
2023-02-15T01:36:53.967Z,102133.88
2023-02-15T01:39:25.416Z,102136.31
2023-02-15T01:41:56.292Z,102136.48
2023-02-15T01:44:43.823Z,102140.34
2023-02-15T01:47:15.045Z,102147.30
2023-02-15T01:49:46.398Z,102149.70
2023-02-15T01:52:18.979Z,102144.48
2023-02-15T01:54:50.876Z,102143.56
2023-02-15T01:57:26.027Z,102141.58
2023-02-15T01:59:58.444Z,102140.95
2023-02-15T02:02:30.124Z,102139.90
2023-02-15T02:05:04.943Z,102139.27
2023-02-15T02:07:38.486Z,102140.67
2023-02-15T02:10:11.686Z,102143.16
2023-02-15T02:12:43.108Z,102145.61
2023-02-15T02:15:15.697Z,102143.50
2023-02-15T02:17:50.563Z,102142.53
2023-02-15T02:20:25.625Z,102145.48
2023-02-15T02:23:04.108Z,102144.38
2023-02-15T02:25:46.659Z,102144.98
2023-02-15T02:28:23.019Z,102142.42
2023-02-15T02:31:00.550Z,102142.93
2023-02-15T02:33:34.046Z,102139.92
2023-02-15T02:36:08.634Z,102142.58
2023-02-15T02:38:43.800Z,102147.49
2023-02-15T02:41:20.433Z,102150.39
2023-02-15T02:43:54.182Z,102155.62
2023-02-15T02:46:27.733Z,102161.59
2023-02-15T02:56:04.420Z,102159.65
2023-02-15T02:58:36.218Z,102161.79
2023-02-15T03:01:08.154Z,102160.61
2023-02-15T03:03:39.225Z,102159.87
2023-02-15T03:06:10.734Z,102160.35
2023-02-15T03:08:42.690Z,102160.98
2023-02-15T03:11:13.560Z,102161.50
2023-02-15T03:13:44.504Z,102161.02
2023-02-15T03:16:30.817Z,102157.04
2023-02-15T03:19:02.942Z,102161.89
2023-02-15T03:21:35.304Z,102162.67
2023-02-15T03:24:08.365Z,102164.96
2023-02-15T03:26:39.311Z,102162.50
2023-02-15T03:29:10.221Z,102160.75
2023-02-15T03:31:41.910Z,102160.67
2023-02-15T03:34:13.768Z,102166.98
2023-02-15T03:36:46.480Z,102172.16
2023-02-15T03:39:20.106Z,102171.79
2023-02-15T03:41:52.588Z,102176.27
2023-02-15T03:44:25.838Z,102176.87
2023-02-15T03:46:57.527Z,102178.20
2023-02-15T03:49:29.210Z,102177.82
2023-02-15T03:52:02.436Z,102180.79
2023-02-15T03:54:47.720Z,102181.84
2023-02-15T03:57:37.924Z,102182.52
2023-02-15T04:00:29.933Z,102183.88
2023-02-15T04:03:12.176Z,102185.07
2023-02-15T04:05:43.258Z,102186.29
2023-02-15T04:08:14.296Z,102191.02
2023-02-15T04:10:57.508Z,102193.85
2023-02-15T04:13:32.224Z,102197.06
2023-02-15T04:16:07.368Z,102198.93
2023-02-15T04:18:57.583Z,102202.31
2023-02-15T04:21:46.552Z,102201.45
2023-02-15T04:24:35.133Z,102202.70
2023-02-15T04:32:22.934Z,102193.23
2023-02-15T04:34:54.011Z,102194.64
2023-02-15T04:37:28.076Z,102196.45
2023-02-15T04:39:59.588Z,102199.14
2023-02-15T04:42:30.635Z,102200.53
2023-02-15T04:45:01.625Z,102208.58
2023-02-15T04:47:32.662Z,102205.52
2023-02-15T04:50:03.413Z,102209.65
2023-02-15T04:52:34.248Z,102210.91
2023-02-15T04:55:07.092Z,102216.02
2023-02-15T04:57:37.854Z,102216.13
2023-02-15T05:00:10.807Z,102218.46
2023-02-15T05:02:41.726Z,102224.34
2023-02-15T05:05:14.103Z,102225.77
2023-02-15T05:07:44.963Z,102229.89
2023-02-15T05:10:16.023Z,102235.01
2023-02-15T05:12:47.151Z,102240.67
2023-02-15T05:15:17.949Z,102245.73
2023-02-15T05:17:48.994Z,102252.66
2023-02-15T05:20:20.666Z,102247.89
2023-02-15T05:22:51.601Z,102245.30
2023-02-15T05:25:39.959Z,102246.77
2023-02-15T05:28:24.335Z,102250.34
2023-02-15T05:31:02.096Z,102256.53
2023-02-15T05:33:33.751Z,102260.02
2023-02-15T05:36:05.452Z,102257.98
2023-02-15T05:38:38.047Z,102265.48
2023-02-15T05:41:09.230Z,102271.44
2023-02-15T05:43:40.359Z,102276.31
2023-02-15T05:46:11.493Z,102285.89
2023-02-15T05:48:42.321Z,102291.41
2023-02-15T05:51:16.028Z,102292.23
2023-02-15T05:53:47.098Z,102290.31
2023-02-15T05:56:17.965Z,102285.73
2023-02-15T05:58:49.189Z,102288.38
2023-02-15T06:01:22.936Z,102290.50
2023-02-15T06:03:55.300Z,102291.52
2023-02-15T06:06:26.074Z,102292.01
2023-02-15T06:08:56.846Z,102289.17
2023-02-15T06:11:27.652Z,102286.77
2023-02-15T06:13:58.494Z,102294.01
2023-02-15T06:16:29.339Z,102299.84
2023-02-15T06:19:02.336Z,102303.82
2023-02-15T06:21:33.238Z,102302.14
2023-02-15T06:24:04.021Z,102302.82
2023-02-15T06:26:34.972Z,102301.70
2023-02-15T06:29:06.029Z,102293.48
2023-02-15T06:31:37.061Z,102288.75
2023-02-15T06:34:08.791Z,102286.73
2023-02-15T06:36:39.634Z,102282.32
2023-02-15T06:39:10.523Z,102284.25
2023-02-15T06:41:41.278Z,102286.27
2023-02-15T06:44:12.006Z,102289.97
2023-02-15T06:46:42.673Z,102289.55
2023-02-15T06:49:13.867Z,102288.65
2023-02-15T06:51:44.653Z,102287.13
2023-02-15T06:54:15.503Z,102286.63
2023-02-15T06:56:46.241Z,102285.46
2023-02-15T06:59:17.034Z,102282.14
2023-02-15T07:01:48.050Z,102280.98
2023-02-15T07:04:18.963Z,102283.54
2023-02-15T07:06:52.648Z,102288.35
2023-02-15T07:09:24.628Z,102288.62
2023-02-15T07:12:13.232Z,102288.40
2023-02-15T07:14:44.164Z,102287.61
2023-02-15T07:17:35.151Z,102286.30
2023-02-15T07:20:06.242Z,102286.48
2023-02-15T07:22:37.381Z,102290.80
2023-02-15T07:25:09.963Z,102285.52
2023-02-15T07:27:41.036Z,102284.27
2023-02-15T07:30:13.983Z,102283.15
2023-02-15T07:32:58.648Z,102276.55
2023-02-15T07:35:29.676Z,102277.17
2023-02-15T07:38:00.743Z,102279.08
2023-02-15T07:40:31.639Z,102273.96
2023-02-15T07:43:02.564Z,102274.55
2023-02-15T07:45:33.483Z,102275.37
2023-02-15T07:48:04.288Z,102272.73
2023-02-15T07:50:35.570Z,102269.49
2023-02-15T07:53:06.633Z,102267.38
2023-02-15T07:55:37.570Z,102266.92
2023-02-15T07:58:08.613Z,102263.27
2023-02-15T08:00:53.456Z,102267.43
2023-02-15T08:03:27.912Z,102268.56
2023-02-15T08:06:00.611Z,102266.14
2023-02-15T08:08:34.482Z,102266.64
2023-02-15T08:11:23.587Z,102262.33
2023-02-15T08:14:00.448Z,102263.71
2023-02-15T08:16:32.368Z,102263.21
2023-02-15T08:19:03.876Z,102266.45
2023-02-15T08:21:35.193Z,102266.18
2023-02-15T08:24:06.750Z,102270.98
2023-02-15T08:26:38.314Z,102272.67
2023-02-15T08:29:11.578Z,102269.15
2023-02-15T08:31:42.844Z,102273.17
2023-02-15T08:34:15.661Z,102269.72
2023-02-15T08:36:47.435Z,102263.23
2023-02-15T08:39:18.220Z,102260.50
2023-02-15T08:41:49.514Z,102265.45
2023-02-15T08:44:20.810Z,102256.80
2023-02-15T08:46:51.708Z,102258.41
2023-02-15T08:49:23.306Z,102255.35
2023-02-15T08:51:54.150Z,102254.96
2023-02-15T08:54:25.001Z,102259.27
2023-02-15T08:56:56.014Z,102260.80
2023-02-15T08:59:28.136Z,102263.60
2023-02-15T09:01:59.661Z,102265.30
2023-02-15T09:04:30.632Z,102260.74
2023-02-15T09:12:18.096Z,102256.19
2023-02-15T09:14:48.868Z,102261.33
2023-02-15T09:17:19.933Z,102267.30
2023-02-15T09:19:51.089Z,102264.83
2023-02-15T09:22:21.905Z,102259.19
2023-02-15T09:24:52.631Z,102253.89
2023-02-15T09:27:23.609Z,102256.83
2023-02-15T09:29:55.576Z,102259.82
2023-02-15T09:32:26.561Z,102260.95
2023-02-15T09:34:57.502Z,102260.80
2023-02-15T09:37:28.504Z,102254.64
2023-02-15T09:39:59.377Z,102247.90
2023-02-15T09:42:43.584Z,102240.64
2023-02-15T09:45:19.197Z,102241.85
2023-02-15T09:47:55.499Z,102243.63
2023-02-15T09:50:28.113Z,102239.27
2023-02-15T09:53:06.549Z,102233.94
2023-02-15T09:55:40.915Z,102234.32
2023-02-15T09:58:13.913Z,102231.50
2023-02-15T10:00:49.105Z,102227.28
2023-02-15T10:03:26.773Z,102226.56
2023-02-15T10:06:01.056Z,102227.36
2023-02-15T10:08:54.788Z,102226.45
2023-02-15T10:11:41.543Z,102224.75
2023-02-15T10:14:15.921Z,102232.64
2023-02-15T10:16:48.527Z,102226.06
2023-02-15T10:19:20.746Z,102224.56
2023-02-15T10:21:55.583Z,102218.56
2023-02-15T10:24:33.027Z,102221.25
2023-02-15T10:27:08.580Z,102209.84
2023-02-15T10:29:39.729Z,102204.88
2023-02-15T10:32:15.977Z,102196.13
2023-02-15T10:34:49.280Z,102192.08
2023-02-15T10:37:39.507Z,102194.54
2023-02-15T10:40:13.014Z,102185.98
2023-02-15T10:42:46.908Z,102190.65
2023-02-15T10:45:21.581Z,102187.36
2023-02-15T10:47:55.627Z,102188.58
2023-02-15T10:50:48.997Z,102184.52
2023-02-15T10:53:23.974Z,102177.42
2023-02-15T10:55:57.412Z,102172.46
2023-02-15T10:58:31.978Z,102168.51
2023-02-15T11:01:05.710Z,102163.96
2023-02-15T11:03:42.485Z,102158.13
2023-02-15T11:06:14.473Z,102161.47
2023-02-15T11:08:45.631Z,102161.34
2023-02-15T11:11:17.585Z,102154.77
2023-02-15T11:13:49.499Z,102157.13
2023-02-15T11:16:21.539Z,102152.83
2023-02-15T11:18:52.653Z,102152.67
2023-02-15T11:21:25.074Z,102154.14
2023-02-15T11:23:55.931Z,102150.79
2023-02-15T11:26:30.039Z,102157.29
2023-02-15T11:29:01.538Z,102152.52
2023-02-15T11:31:35.643Z,102152.99
2023-02-15T11:34:07.462Z,102146.75
2023-02-15T11:36:38.722Z,102148.33
2023-02-15T11:39:12.123Z,102143.27
2023-02-15T11:41:45.286Z,102141.92
2023-02-15T11:44:17.497Z,102144.19
2023-02-15T11:46:48.323Z,102135.40
2023-02-15T11:49:22.474Z,102135.59
2023-02-15T11:51:53.487Z,102128.89
2023-02-15T11:54:26.164Z,102127.79
2023-02-15T11:56:57.130Z,102126.61
2023-02-15T11:59:29.748Z,102124.06
2023-02-15T12:02:00.521Z,102120.88
2023-02-15T12:04:32.805Z,102118.96
2023-02-15T12:07:04.634Z,102114.75
2023-02-15T12:09:36.665Z,102115.19
2023-02-15T12:12:26.955Z,102112.57
2023-02-15T12:18:50.172Z,102113.85
2023-02-15T12:21:28.120Z,102105.64
2023-02-15T12:23:59.864Z,102107.88
2023-02-15T12:26:31.445Z,102107.79
2023-02-15T12:29:03.873Z,102103.54
2023-02-15T12:31:36.921Z,102097.80
2023-02-15T12:34:10.448Z,102099.73
2023-02-15T12:36:47.709Z,102103.04
2023-02-15T12:39:28.701Z,102098.62
2023-02-15T12:42:07.688Z,102098.66
2023-02-15T12:44:38.711Z,102097.48
2023-02-15T12:47:20.275Z,102097.34
2023-02-15T12:50:12.254Z,102100.40
2023-02-15T12:52:43.848Z,102098.61
2023-02-15T12:55:20.834Z,102096.68
2023-02-15T12:57:52.619Z,102087.98
2023-02-15T13:00:33.193Z,102085.17
2023-02-15T13:03:04.110Z,102085.23
2023-02-15T13:05:36.440Z,102080.84
2023-02-15T13:08:13.004Z,102079.61
2023-02-15T13:10:44.917Z,102078.66
2023-02-15T13:13:21.820Z,102078.12
2023-02-15T13:15:53.797Z,102075.10
2023-02-15T13:18:26.098Z,102072.52
2023-02-15T13:20:56.854Z,102075.13
2023-02-15T13:23:29.838Z,102075.75
2023-02-15T13:26:01.543Z,102071.09
2023-02-15T13:28:34.548Z,102070.39
2023-02-15T13:31:06.200Z,102070.02
2023-02-15T13:33:37.801Z,102068.45
2023-02-15T13:36:11.120Z,102069.06
2023-02-15T13:38:46.459Z,102063.04
2023-02-15T13:41:18.171Z,102062.13
2023-02-15T13:43:51.954Z,102063.69
2023-02-15T13:46:24.962Z,102062.45
2023-02-15T13:48:57.968Z,102061.63
2023-02-15T13:51:29.834Z,102056.26
2023-02-15T13:54:03.653Z,102055.66
2023-02-15T13:56:38.058Z,102053.42
2023-02-15T13:59:19.869Z,102053.09
2023-02-15T14:01:52.505Z,102052.50
2023-02-15T14:04:32.047Z,102058.54
2023-02-15T14:07:06.935Z,102062.13
2023-02-15T14:09:42.569Z,102065.98
2023-02-15T14:12:18.769Z,102064.42
2023-02-15T14:14:54.302Z,102059.08
2023-02-15T14:17:25.886Z,102056.80
2023-02-15T14:19:56.932Z,102055.96
2023-02-15T14:22:31.204Z,102059.20
2023-02-15T14:25:18.222Z,102056.48
2023-02-15T14:27:55.834Z,102058.09
2023-02-15T14:30:31.201Z,102057.11
2023-02-15T14:33:03.637Z,102059.42
2023-02-15T14:35:34.450Z,102061.88
2023-02-15T14:38:06.907Z,102063.15
2023-02-15T14:40:57.080Z,102059.48
2023-02-15T14:43:30.021Z,102056.61
2023-02-15T14:46:01.549Z,102063.29
2023-02-15T14:48:33.324Z,102062.05
2023-02-15T14:51:04.600Z,102066.80
2023-02-15T14:53:39.834Z,102058.15
2023-02-15T14:56:26.401Z,102061.23
2023-02-15T14:59:14.154Z,102062.68
2023-02-15T15:01:45.121Z,102064.02
2023-02-15T15:04:16.589Z,102065.95
2023-02-15T15:06:47.348Z,102068.35
2023-02-15T15:09:21.636Z,102068.89
2023-02-15T15:11:53.244Z,102072.39
2023-02-15T15:14:43.316Z,102073.63
2023-02-15T15:17:15.359Z,102069.02
2023-02-15T15:20:08.509Z,102066.34
2023-02-15T15:22:39.351Z,102071.52
2023-02-15T15:25:14.831Z,102080.86
2023-02-15T15:27:52.023Z,102080.45
2023-02-15T15:30:40.895Z,102081.80
2023-02-15T15:33:14.237Z,102077.73
2023-02-15T15:35:53.699Z,102074.23
2023-02-15T15:38:29.176Z,102077.64
2023-02-15T15:41:22.027Z,102078.40
2023-02-15T15:43:57.884Z,102080.69
2023-02-15T15:46:41.324Z,102080.96
2023-02-15T15:49:13.136Z,102084.15
2023-02-15T15:51:44.307Z,102082.25
2023-02-15T15:54:17.324Z,102082.81
2023-02-15T15:56:49.050Z,102085.99
2023-02-15T15:59:21.275Z,102085.95
2023-02-15T16:01:52.375Z,102089.05
2023-02-15T16:04:27.862Z,102092.01
2023-02-15T16:06:58.785Z,102097.05
2023-02-15T16:09:29.622Z,102100.95
2023-02-15T16:12:02.813Z,102104.92
2023-02-15T16:14:34.566Z,102101.54
2023-02-15T16:17:07.001Z,102108.89
2023-02-15T16:19:38.152Z,102110.28
2023-02-15T16:22:11.862Z,102108.34
2023-02-15T16:24:53.523Z,102111.85
2023-02-15T16:27:37.643Z,102119.17
2023-02-15T16:34:00.481Z,102129.60
2023-02-15T16:36:31.538Z,102133.16
2023-02-15T16:39:14.763Z,102138.15
2023-02-15T16:41:47.212Z,102140.74
2023-02-15T16:44:20.959Z,102150.09
2023-02-15T16:46:52.525Z,102150.85
2023-02-15T16:49:24.099Z,102152.19
2023-02-15T16:51:57.823Z,102153.86
2023-02-15T16:54:28.798Z,102156.23
2023-02-15T16:57:05.356Z,102157.05
2023-02-15T16:59:37.731Z,102162.26
2023-02-15T17:02:14.528Z,102162.98
2023-02-15T17:04:49.901Z,102163.73
2023-02-15T17:07:21.382Z,102160.46
2023-02-15T17:09:53.328Z,102159.76
2023-02-15T17:12:41.511Z,102160.67
2023-02-15T17:15:20.815Z,102160.77
2023-02-15T17:17:51.775Z,102162.16
2023-02-15T17:20:23.221Z,102163.82
2023-02-15T17:22:54.589Z,102165.00
2023-02-15T17:25:28.561Z,102166.78
2023-02-15T17:28:00.823Z,102164.95
2023-02-15T17:30:37.143Z,102163.73
2023-02-15T17:33:30.228Z,102166.54
2023-02-15T17:36:11.818Z,102173.97
2023-02-15T17:38:43.223Z,102175.35
2023-02-15T17:41:14.239Z,102178.98
2023-02-15T17:43:45.144Z,102179.92
2023-02-15T17:46:19.597Z,102180.98
2023-02-15T17:48:51.519Z,102180.48
2023-02-15T17:51:22.633Z,102176.66
2023-02-15T17:54:10.809Z,102180.86
2023-02-15T17:56:44.650Z,102181.04
2023-02-15T17:59:15.617Z,102182.05
2023-02-15T18:02:05.043Z,102185.80
2023-02-15T18:04:53.618Z,102186.88
2023-02-15T18:07:42.711Z,102185.83
2023-02-15T18:10:33.577Z,102189.73
2023-02-15T18:13:04.814Z,102190.86
2023-02-15T18:15:37.127Z,102195.95
2023-02-15T18:18:12.833Z,102197.91
2023-02-15T18:20:48.868Z,102195.23
2023-02-15T18:23:21.670Z,102196.71
2023-02-15T18:26:10.069Z,102193.13
2023-02-15T18:28:49.633Z,102196.65
2023-02-15T18:31:27.966Z,102196.47
2023-02-15T18:34:00.559Z,102203.82
2023-02-15T18:36:42.934Z,102199.89
2023-02-15T18:39:23.502Z,102204.17
2023-02-15T18:42:20.439Z,102207.69
2023-02-15T18:44:54.812Z,102212.77
2023-02-15T18:47:29.865Z,102217.39
2023-02-15T18:50:03.522Z,102215.21
2023-02-15T18:52:38.954Z,102215.42
2023-02-15T18:55:21.969Z,102218.34
2023-02-15T18:57:57.814Z,102220.08
2023-02-15T19:00:30.392Z,102228.02
2023-02-15T19:03:04.598Z,102227.22
2023-02-15T19:05:36.127Z,102229.88
2023-02-15T19:08:14.192Z,102229.02
2023-02-15T19:10:45.639Z,102225.61
2023-02-15T19:13:18.187Z,102228.77
2023-02-15T19:15:53.588Z,102232.40
2023-02-15T19:18:24.427Z,102234.55
2023-02-15T19:20:55.283Z,102233.18
2023-02-15T19:23:27.537Z,102231.48
2023-02-15T19:25:58.509Z,102233.89
2023-02-15T19:28:32.682Z,102237.65
2023-02-15T19:31:03.892Z,102241.30
2023-02-15T19:33:35.061Z,102240.20
2023-02-15T19:36:06.903Z,102240.60
2023-02-15T19:38:38.638Z,102235.53
2023-02-15T19:41:11.151Z,102231.93
2023-02-15T19:43:46.054Z,102237.34
2023-02-15T19:46:21.333Z,102238.27
2023-02-15T19:49:13.745Z,102236.42
2023-02-15T19:51:53.832Z,102236.67
2023-02-15T19:54:33.578Z,102237.41
2023-02-15T19:57:06.208Z,102237.56
2023-02-15T19:59:38.087Z,102233.69
2023-02-15T20:02:11.996Z,102235.35
2023-02-15T20:04:43.519Z,102232.76
2023-02-15T20:07:18.465Z,102238.13
2023-02-15T20:09:52.777Z,102239.86
2023-02-15T20:12:24.616Z,102236.23
2023-02-15T20:14:56.825Z,102233.89
2023-02-15T20:17:28.367Z,102231.92
2023-02-15T20:20:03.841Z,102237.55
2023-02-15T20:22:43.859Z,102234.95
2023-02-15T20:25:17.009Z,102235.52
2023-02-15T20:31:02.811Z,102227.23
2023-02-15T20:40:22.740Z,102223.81
2023-02-15T20:43:18.110Z,102228.85
2023-02-15T20:46:11.862Z,102227.30
2023-02-15T20:48:45.440Z,102230.83
2023-02-15T21:05:59.502Z,102239.91
2023-02-15T21:08:43.830Z,102237.75
2023-02-15T21:15:07.062Z,102244.59
2023-02-15T21:18:31.926Z,102246.18
2023-02-15T21:21:54.422Z,102243.91
2023-02-15T21:28:07.015Z,102246.97
2023-02-15T21:28:08.536Z,102242.11
2023-02-15T21:33:44.895Z,102239.77
2023-02-15T21:36:17.284Z,102243.63
2023-02-15T21:38:48.454Z,102241.80
2023-02-15T21:41:37.844Z,102238.60
2023-02-15T21:44:33.024Z,102244.11
2023-02-15T21:47:23.728Z,102248.27
2023-02-15T21:49:56.216Z,102251.18
2023-02-15T22:00:42.359Z,102254.58
2023-02-15T22:03:21.943Z,102253.06
2023-02-15T22:06:05.734Z,102252.92
2023-02-15T22:11:53.582Z,102253.32
2023-02-15T22:14:32.423Z,102250.76
2023-02-15T22:17:03.314Z,102252.23
2023-02-15T22:19:34.168Z,102251.45
2023-02-15T22:22:08.993Z,102251.23
2023-02-15T22:24:40.050Z,102255.12
2023-02-15T22:27:13.488Z,102254.91
2023-02-15T22:29:44.298Z,102255.21
2023-02-15T22:32:18.542Z,102256.77
2023-02-15T22:34:49.571Z,102254.10
2023-02-15T22:37:20.463Z,102252.91
2023-02-15T22:39:51.288Z,102251.46
2023-02-15T22:42:25.873Z,102249.66
2023-02-15T22:44:57.254Z,102251.53
2023-02-15T22:47:28.570Z,102250.09
2023-02-15T22:49:59.432Z,102249.39
2023-02-15T22:52:30.337Z,102250.40
2023-02-15T22:55:04.331Z,102248.73
2023-02-15T22:57:35.293Z,102250.18
2023-02-15T23:00:09.507Z,102250.15
2023-02-15T23:02:40.382Z,102250.91
2023-02-15T23:05:15.794Z,102249.58
2023-02-15T23:07:46.799Z,102248.47
2023-02-15T23:10:24.330Z,102255.00
2023-02-15T23:13:13.478Z,102255.48
2023-02-15T23:15:45.150Z,102257.15
2023-02-15T23:18:20.218Z,102258.13
2023-02-15T23:20:52.405Z,102256.66
2023-02-15T23:27:47.613Z,102256.84
2023-02-15T23:30:18.325Z,102251.17
2023-02-15T23:32:49.199Z,102251.91
2023-02-15T23:35:20.659Z,102251.95
2023-02-15T23:37:51.586Z,102253.70
2023-02-15T23:40:41.096Z,102254.64
2023-02-15T23:43:13.430Z,102248.52
2023-02-15T23:45:44.339Z,102245.40
2023-02-15T23:48:31.483Z,102247.34
2023-02-15T23:51:02.850Z,102248.09
2023-02-15T23:53:34.012Z,102253.65
2023-02-15T23:56:05.119Z,102254.75
2023-02-15T23:58:41.302Z,102255.40
